sensor_id;sensor_type;location;lat;lon;timestamp;pressure;altitude;pressure_sealevel;temperature;humidity
8061;BME280;4073;42.626;25.386;2023-11-19T00:01:26;96699.25;;;4.66;100.00
8061;BME280;4073;42.626;25.386;2023-11-19T00:03:51;96707.03;;;4.73;100.00
8061;BME280;4073;42.626;25.386;2023-11-19T00:06:18;96690.22;;;4.62;100.00
8061;BME280;4073;42.626;25.386;2023-11-19T00:08:44;96689.47;;;4.67;100.00
8061;BME280;4073;42.626;25.386;2023-11-19T00:11:09;96697.47;;;4.72;100.00
8061;BME280;4073;42.626;25.386;2023-11-19T00:13:36;96701.75;;;4.73;100.00
8061;BME280;4073;42.626;25.386;2023-11-19T00:16:01;96701.25;;;4.76;100.00
8061;BME280;4073;42.626;25.386;2023-11-19T00:18:29;96709.44;;;4.74;100.00
8061;BME280;4073;42.626;25.386;2023-11-19T00:20:55;96715.50;;;4.75;100.00
8061;BME280;4073;42.626;25.386;2023-11-19T00:23:20;96698.47;;;4.66;100.00
8061;BME280;4073;42.626;25.386;2023-11-19T00:25:46;96721.38;;;4.77;100.00
8061;BME280;4073;42.626;25.386;2023-11-19T00:28:13;96734.06;;;4.75;100.00
8061;BME280;4073;42.626;25.386;2023-11-19T00:30:38;96734.63;;;4.77;100.00
8061;BME280;4073;42.626;25.386;2023-11-19T00:33:05;96725.13;;;4.81;100.00
8061;BME280;4073;42.626;25.386;2023-11-19T00:35:31;96717.78;;;4.66;100.00
8061;BME280;4073;42.626;25.386;2023-11-19T00:37:57;96728.75;;;4.75;100.00
8061;BME280;4073;42.626;25.386;2023-11-19T00:40:23;96726.97;;;4.80;100.00
8061;BME280;4073;42.626;25.386;2023-11-19T00:42:49;96735.72;;;4.81;100.00
8061;BME280;4073;42.626;25.386;2023-11-19T00:45:14;96715.09;;;4.83;100.00
8061;BME280;4073;42.626;25.386;2023-11-19T00:47:40;96713.00;;;4.85;100.00
8061;BME280;4073;42.626;25.386;2023-11-19T00:50:06;96710.91;;;4.87;100.00
8061;BME280;4073;42.626;25.386;2023-11-19T00:52:35;96713.00;;;4.85;100.00
8061;BME280;4073;42.626;25.386;2023-11-19T00:55:01;96726.06;;;4.91;100.00
8061;BME280;4073;42.626;25.386;2023-11-19T00:57:26;96740.41;;;4.95;100.00
8061;BME280;4073;42.626;25.386;2023-11-19T00:59:52;96735.41;;;4.99;100.00
8061;BME280;4073;42.626;25.386;2023-11-19T01:02:17;96731.50;;;5.01;100.00
8061;BME280;4073;42.626;25.386;2023-11-19T01:04:43;96725.88;;;4.98;100.00
8061;BME280;4073;42.626;25.386;2023-11-19T01:07:09;96723.19;;;4.93;100.00
8061;BME280;4073;42.626;25.386;2023-11-19T01:09:38;96712.50;;;4.88;100.00
8061;BME280;4073;42.626;25.386;2023-11-19T01:12:04;96721.16;;;5.00;100.00
8061;BME280;4073;42.626;25.386;2023-11-19T01:14:30;96720.00;;;4.96;100.00
8061;BME280;4073;42.626;25.386;2023-11-19T01:16:55;96722.47;;;4.81;100.00
8061;BME280;4073;42.626;25.386;2023-11-19T01:19:21;96719.69;;;4.71;100.00
8061;BME280;4073;42.626;25.386;2023-11-19T01:21:48;96726.44;;;4.78;100.00
8061;BME280;4073;42.626;25.386;2023-11-19T01:24:13;96727.59;;;4.87;100.00
8061;BME280;4073;42.626;25.386;2023-11-19T01:26:39;96738.19;;;5.09;100.00
8061;BME280;4073;42.626;25.386;2023-11-19T01:29:13;96732.72;;;5.15;100.00
8061;BME280;4073;42.626;25.386;2023-11-19T01:31:40;96743.59;;;5.19;100.00
8061;BME280;4073;42.626;25.386;2023-11-19T01:34:06;96731.09;;;5.14;100.00
8061;BME280;4073;42.626;25.386;2023-11-19T01:36:31;96747.31;;;5.18;100.00
8061;BME280;4073;42.626;25.386;2023-11-19T01:38:57;96742.06;;;5.23;100.00
8061;BME280;4073;42.626;25.386;2023-11-19T01:41:22;96732.59;;;5.27;100.00
8061;BME280;4073;42.626;25.386;2023-11-19T01:43:47;96743.47;;;5.30;100.00
8061;BME280;4073;42.626;25.386;2023-11-19T01:46:13;96740.31;;;5.33;100.00
8061;BME280;4073;42.626;25.386;2023-11-19T01:48:42;96733.44;;;5.32;100.00
8061;BME280;4073;42.626;25.386;2023-11-19T01:51:09;96740.28;;;5.28;100.00
8061;BME280;4073;42.626;25.386;2023-11-19T01:53:36;96739.22;;;5.29;100.00
8061;BME280;4073;42.626;25.386;2023-11-19T01:56:05;96732.59;;;5.27;100.00
8061;BME280;4073;42.626;25.386;2023-11-19T01:58:35;96733.19;;;5.34;100.00
8061;BME280;4073;42.626;25.386;2023-11-19T02:01:01;96720.94;;;5.28;100.00
8061;BME280;4073;42.626;25.386;2023-11-19T02:03:31;96727.28;;;5.27;100.00
8061;BME280;4073;42.626;25.386;2023-11-19T02:05:59;96734.47;;;5.31;100.00
8061;BME280;4073;42.626;25.386;2023-11-19T02:08:24;96718.56;;;5.31;100.00
8061;BME280;4073;42.626;25.386;2023-11-19T02:10:51;96733.72;;;5.36;100.00
8061;BME280;4073;42.626;25.386;2023-11-19T02:13:17;96724.91;;;5.30;100.00
8061;BME280;4073;42.626;25.386;2023-11-19T02:15:43;96717.03;;;5.35;100.00
8061;BME280;4073;42.626;25.386;2023-11-19T02:18:25;96753.38;;;5.40;100.00
8061;BME280;4073;42.626;25.386;2023-11-19T02:20:57;96742.28;;;5.43;100.00
8061;BME280;4073;42.626;25.386;2023-11-19T02:23:23;96736.38;;;5.36;100.00
8061;BME280;4073;42.626;25.386;2023-11-19T02:28:36;96735.38;;;5.42;100.00
8061;BME280;4073;42.626;25.386;2023-11-19T02:31:02;96722.69;;;5.44;100.00
8061;BME280;4073;42.626;25.386;2023-11-19T02:33:30;96719.13;;;5.33;100.00
8061;BME280;4073;42.626;25.386;2023-11-19T02:35:55;96720.69;;;5.29;100.00
8061;BME280;4073;42.626;25.386;2023-11-19T02:38:21;96736.88;;;5.33;100.00
8061;BME280;4073;42.626;25.386;2023-11-19T02:40:47;96732.69;;;5.37;100.00
8061;BME280;4073;42.626;25.386;2023-11-19T02:43:13;96748.41;;;5.43;100.00
8061;BME280;4073;42.626;25.386;2023-11-19T02:45:38;96744.16;;;5.43;100.00
8061;BME280;4073;42.626;25.386;2023-11-19T02:48:04;96702.16;;;5.34;100.00
8061;BME280;4073;42.626;25.386;2023-11-19T02:50:31;96720.94;;;5.28;100.00
8061;BME280;4073;42.626;25.386;2023-11-19T02:52:57;96760.44;;;5.29;100.00
8061;BME280;4073;42.626;25.386;2023-11-19T02:55:23;96774.19;;;5.26;100.00
8061;BME280;4073;42.626;25.386;2023-11-19T02:57:49;96761.41;;;5.23;100.00
8061;BME280;4073;42.626;25.386;2023-11-19T03:00:19;96765.97;;;5.28;100.00
8061;BME280;4073;42.626;25.386;2023-11-19T03:02:49;96781.38;;;5.31;100.00
8061;BME280;4073;42.626;25.386;2023-11-19T03:05:23;96782.97;;;5.32;100.00
8061;BME280;4073;42.626;25.386;2023-11-19T03:07:49;96783.97;;;5.26;100.00
8061;BME280;4073;42.626;25.386;2023-11-19T03:10:14;96785.50;;;5.22;100.00
8061;BME280;4073;42.626;25.386;2023-11-19T03:12:40;96780.09;;;5.12;100.00
8061;BME280;4073;42.626;25.386;2023-11-19T03:15:06;96776.13;;;5.14;100.00
8061;BME280;4073;42.626;25.386;2023-11-19T03:17:33;96800.63;;;5.21;100.00
8061;BME280;4073;42.626;25.386;2023-11-19T03:20:00;96797.41;;;5.19;100.00
8061;BME280;4073;42.626;25.386;2023-11-19T03:22:26;96769.00;;;5.15;100.00
8061;BME280;4073;42.626;25.386;2023-11-19T03:24:52;96788.38;;;5.15;100.00
8061;BME280;4073;42.626;25.386;2023-11-19T03:27:17;96796.31;;;5.15;100.00
8061;BME280;4073;42.626;25.386;2023-11-19T03:29:42;96794.69;;;5.14;100.00
8061;BME280;4073;42.626;25.386;2023-11-19T03:32:08;96794.44;;;5.16;100.00
8061;BME280;4073;42.626;25.386;2023-11-19T03:34:34;96793.91;;;5.14;100.00
8061;BME280;4073;42.626;25.386;2023-11-19T03:36:59;96791.88;;;5.21;100.00
8061;BME280;4073;42.626;25.386;2023-11-19T03:39:25;96764.56;;;5.20;100.00
8061;BME280;4073;42.626;25.386;2023-11-19T03:41:50;96783.59;;;5.17;100.00
8061;BME280;4073;42.626;25.386;2023-11-19T03:44:16;96801.84;;;5.14;100.00
8061;BME280;4073;42.626;25.386;2023-11-19T03:46:42;96794.69;;;5.14;100.00
8061;BME280;4073;42.626;25.386;2023-11-19T03:49:07;96819.91;;;5.17;100.00
8061;BME280;4073;42.626;25.386;2023-11-19T03:51:33;96784.91;;;5.15;100.00
8061;BME280;4073;42.626;25.386;2023-11-19T03:54:00;96764.50;;;4.94;100.00
8061;BME280;4073;42.626;25.386;2023-11-19T03:56:26;96791.19;;;5.09;100.00
8061;BME280;4073;42.626;25.386;2023-11-19T03:58:52;96789.34;;;5.09;100.00
8061;BME280;4073;42.626;25.386;2023-11-19T04:01:17;96812.44;;;5.14;100.00
8061;BME280;4073;42.626;25.386;2023-11-19T04:03:43;96805.13;;;5.21;100.00
8061;BME280;4073;42.626;25.386;2023-11-19T04:06:08;96806.59;;;5.12;100.00
8061;BME280;4073;42.626;25.386;2023-11-19T04:08:34;96825.34;;;5.27;100.00
8061;BME280;4073;42.626;25.386;2023-11-19T04:11:01;96827.19;;;5.26;100.00
8061;BME280;4073;42.626;25.386;2023-11-19T04:13:27;96847.81;;;5.24;100.00
8061;BME280;4073;42.626;25.386;2023-11-19T04:15:52;96817.41;;;5.27;100.00
8061;BME280;4073;42.626;25.386;2023-11-19T04:18:18;96834.88;;;5.28;100.00
8061;BME280;4073;42.626;25.386;2023-11-19T04:20:43;96836.00;;;5.32;100.00
8061;BME280;4073;42.626;25.386;2023-11-19T04:23:09;96827.81;;;5.33;100.00
8061;BME280;4073;42.626;25.386;2023-11-19T04:25:35;96849.31;;;5.37;100.00
8061;BME280;4073;42.626;25.386;2023-11-19T04:28:01;96866.25;;;5.36;100.00
8061;BME280;4073;42.626;25.386;2023-11-19T04:30:27;96862.59;;;5.37;100.00
8061;BME280;4073;42.626;25.386;2023-11-19T04:32:53;96869.91;;;5.30;100.00
8061;BME280;4073;42.626;25.386;2023-11-19T04:35:18;96876.00;;;5.30;100.00
8061;BME280;4073;42.626;25.386;2023-11-19T04:37:44;96881.63;;;5.34;100.00
8061;BME280;4073;42.626;25.386;2023-11-19T04:40:10;96888.56;;;5.40;100.00
8061;BME280;4073;42.626;25.386;2023-11-19T04:42:37;96876.38;;;5.39;100.00
8061;BME280;4073;42.626;25.386;2023-11-19T04:45:06;96901.03;;;5.39;100.00
8061;BME280;4073;42.626;25.386;2023-11-19T04:47:32;96898.63;;;5.38;100.00
8061;BME280;4073;42.626;25.386;2023-11-19T04:49:58;96913.72;;;5.37;100.00
8061;BME280;4073;42.626;25.386;2023-11-19T04:52:23;96912.06;;;5.31;100.00
8061;BME280;4073;42.626;25.386;2023-11-19T04:54:49;96902.00;;;5.33;100.00
8061;BME280;4073;42.626;25.386;2023-11-19T04:57:14;96923.53;;;5.37;100.00
8061;BME280;4073;42.626;25.386;2023-11-19T04:59:40;96925.16;;;5.38;100.00
8061;BME280;4073;42.626;25.386;2023-11-19T05:02:06;96915.84;;;5.35;100.00
8061;BME280;4073;42.626;25.386;2023-11-19T05:04:32;96930.88;;;5.30;100.00
8061;BME280;4073;42.626;25.386;2023-11-19T05:06:57;96936.72;;;5.32;100.00
8061;BME280;4073;42.626;25.386;2023-11-19T05:09:22;96894.44;;;5.04;100.00
8061;BME280;4073;42.626;25.386;2023-11-19T05:11:48;96942.75;;;5.27;100.00
8061;BME280;4073;42.626;25.386;2023-11-19T05:14:14;96930.53;;;5.26;100.00
8061;BME280;4073;42.626;25.386;2023-11-19T05:16:40;96954.63;;;5.25;100.00
8061;BME280;4073;42.626;25.386;2023-11-19T05:19:06;96967.88;;;5.25;100.00
8061;BME280;4073;42.626;25.386;2023-11-19T05:21:31;96962.28;;;5.21;100.00
8061;BME280;4073;42.626;25.386;2023-11-19T05:23:57;96971.50;;;5.19;100.00
8061;BME280;4073;42.626;25.386;2023-11-19T05:26:24;96982.81;;;5.14;100.00
8061;BME280;4073;42.626;25.386;2023-11-19T05:28:50;96975.88;;;5.08;100.00
8061;BME280;4073;42.626;25.386;2023-11-19T05:31:16;96976.34;;;5.05;100.00
8061;BME280;4073;42.626;25.386;2023-11-19T05:33:42;96983.25;;;5.06;100.00
8061;BME280;4073;42.626;25.386;2023-11-19T05:36:08;96986.94;;;5.05;100.00
8061;BME280;4073;42.626;25.386;2023-11-19T05:38:36;96978.81;;;4.95;100.00
8061;BME280;4073;42.626;25.386;2023-11-19T05:41:02;96983.72;;;5.03;100.00
8061;BME280;4073;42.626;25.386;2023-11-19T05:43:28;96992.25;;;5.05;100.00
8061;BME280;4073;42.626;25.386;2023-11-19T05:45:53;96976.00;;;5.02;100.00
8061;BME280;4073;42.626;25.386;2023-11-19T05:48:19;96977.06;;;5.01;100.00
8061;BME280;4073;42.626;25.386;2023-11-19T05:50:44;96940.88;;;4.90;100.00
8061;BME280;4073;42.626;25.386;2023-11-19T05:53:10;96964.06;;;4.99;100.00
8061;BME280;4073;42.626;25.386;2023-11-19T05:55:39;96979.00;;;5.05;100.00
8061;BME280;4073;42.626;25.386;2023-11-19T05:58:30;96962.28;;;5.05;100.00
8061;BME280;4073;42.626;25.386;2023-11-19T06:00:57;96991.44;;;5.05;100.00
8061;BME280;4073;42.626;25.386;2023-11-19T06:03:25;96987.41;;;5.02;100.00
8061;BME280;4073;42.626;25.386;2023-11-19T06:05:50;96984.59;;;5.09;100.00
8061;BME280;4073;42.626;25.386;2023-11-19T06:08:16;96994.66;;;5.07;100.00
8061;BME280;4073;42.626;25.386;2023-11-19T06:10:42;96997.31;;;5.07;100.00
8061;BME280;4073;42.626;25.386;2023-11-19T06:13:08;96979.28;;;5.09;100.00
8061;BME280;4073;42.626;25.386;2023-11-19T06:15:36;96980.75;;;5.16;100.00
8061;BME280;4073;42.626;25.386;2023-11-19T06:18:02;96979.16;;;5.15;100.00
8061;BME280;4073;42.626;25.386;2023-11-19T06:20:32;96986.06;;;5.16;100.00
8061;BME280;4073;42.626;25.386;2023-11-19T06:22:58;96988.69;;;5.16;100.00
8061;BME280;4073;42.626;25.386;2023-11-19T06:25:24;96966.13;;;5.14;100.00
8061;BME280;4073;42.626;25.386;2023-11-19T06:27:50;96990.53;;;5.16;100.00
8061;BME280;4073;42.626;25.386;2023-11-19T06:30:16;97005.88;;;5.14;100.00
8061;BME280;4073;42.626;25.386;2023-11-19T06:32:41;96995.78;;;5.11;100.00
8061;BME280;4073;42.626;25.386;2023-11-19T06:35:07;96991.59;;;5.15;100.00
8061;BME280;4073;42.626;25.386;2023-11-19T06:37:34;97005.72;;;5.20;100.00
8061;BME280;4073;42.626;25.386;2023-11-19T06:39:59;96986.69;;;5.23;100.00
8061;BME280;4073;42.626;25.386;2023-11-19T06:42:25;97000.19;;;5.22;100.00
8061;BME280;4073;42.626;25.386;2023-11-19T06:44:50;96978.44;;;5.20;100.00
8061;BME280;4073;42.626;25.386;2023-11-19T06:47:17;96981.31;;;5.18;100.00
8061;BME280;4073;42.626;25.386;2023-11-19T06:49:45;96968.47;;;5.10;100.00
8061;BME280;4073;42.626;25.386;2023-11-19T06:52:11;96989.28;;;5.18;100.00
8061;BME280;4073;42.626;25.386;2023-11-19T06:54:39;96982.91;;;5.19;100.00
8061;BME280;4073;42.626;25.386;2023-11-19T06:57:04;96987.25;;;5.25;100.00
8061;BME280;4073;42.626;25.386;2023-11-19T06:59:30;96991.75;;;5.25;99.58
8061;BME280;4073;42.626;25.386;2023-11-19T07:01:56;96985.31;;;5.37;100.00
8061;BME280;4073;42.626;25.386;2023-11-19T07:04:21;96990.75;;;5.47;97.41
8061;BME280;4073;42.626;25.386;2023-11-19T07:06:47;96986.91;;;5.55;97.36
8061;BME280;4073;42.626;25.386;2023-11-19T07:09:13;96974.50;;;5.61;95.91
8061;BME280;4073;42.626;25.386;2023-11-19T07:11:40;96979.38;;;5.69;95.74
8061;BME280;4073;42.626;25.386;2023-11-19T07:14:07;96981.13;;;5.80;92.37
8061;BME280;4073;42.626;25.386;2023-11-19T07:16:34;96996.03;;;6.02;91.40
8061;BME280;4073;42.626;25.386;2023-11-19T07:19:00;96993.25;;;6.14;91.16
8061;BME280;4073;42.626;25.386;2023-11-19T07:21:26;97003.41;;;6.17;90.75
8061;BME280;4073;42.626;25.386;2023-11-19T07:23:57;97006.00;;;6.38;89.75
8061;BME280;4073;42.626;25.386;2023-11-19T07:26:23;97011.28;;;7.13;85.62
8061;BME280;4073;42.626;25.386;2023-11-19T07:28:49;97018.72;;;8.41;74.52
8061;BME280;4073;42.626;25.386;2023-11-19T07:31:15;97026.88;;;9.51;67.00
8061;BME280;4073;42.626;25.386;2023-11-19T07:33:41;97005.28;;;9.57;62.22
8061;BME280;4073;42.626;25.386;2023-11-19T07:36:10;97027.88;;;8.75;67.18
8061;BME280;4073;42.626;25.386;2023-11-19T07:38:36;97019.75;;;8.35;69.61
8061;BME280;4073;42.626;25.386;2023-11-19T07:41:02;97027.94;;;9.10;66.91
8061;BME280;4073;42.626;25.386;2023-11-19T07:43:27;97035.63;;;9.86;61.26
8061;BME280;4073;42.626;25.386;2023-11-19T07:45:53;97059.44;;;9.83;61.93
8061;BME280;4073;42.626;25.386;2023-11-19T07:48:18;97066.91;;;9.51;62.49
8061;BME280;4073;42.626;25.386;2023-11-19T07:50:52;97061.31;;;9.52;63.20
8061;BME280;4073;42.626;25.386;2023-11-19T07:53:18;97063.44;;;9.35;63.09
8061;BME280;4073;42.626;25.386;2023-11-19T07:55:43;97074.88;;;9.06;64.00
8061;BME280;4073;42.626;25.386;2023-11-19T07:58:10;97069.53;;;9.01;65.18
8061;BME280;4073;42.626;25.386;2023-11-19T08:00:36;97066.53;;;8.72;67.03
8061;BME280;4073;42.626;25.386;2023-11-19T08:03:03;97064.66;;;8.68;68.02
8061;BME280;4073;42.626;25.386;2023-11-19T08:05:28;97081.34;;;9.45;62.54
8061;BME280;4073;42.626;25.386;2023-11-19T08:07:54;97075.44;;;9.33;62.96
8061;BME280;4073;42.626;25.386;2023-11-19T08:10:19;97085.81;;;10.34;59.74
8061;BME280;4073;42.626;25.386;2023-11-19T08:12:45;97073.75;;;10.32;57.48
8061;BME280;4073;42.626;25.386;2023-11-19T08:15:10;97095.19;;;9.57;61.33
8061;BME280;4073;42.626;25.386;2023-11-19T08:17:36;97074.34;;;9.24;62.09
8061;BME280;4073;42.626;25.386;2023-11-19T08:20:03;97095.19;;;9.97;62.27
8061;BME280;4073;42.626;25.386;2023-11-19T08:22:30;97092.03;;;10.79;56.23
8061;BME280;4073;42.626;25.386;2023-11-19T08:24:56;97087.03;;;11.54;52.29
8061;BME280;4073;42.626;25.386;2023-11-19T08:27:21;97080.00;;;13.33;47.27
8061;BME280;4073;42.626;25.386;2023-11-19T08:29:53;97076.19;;;13.71;43.75
8061;BME280;4073;42.626;25.386;2023-11-19T08:32:21;97065.25;;;14.00;43.78
8061;BME280;4073;42.626;25.386;2023-11-19T08:34:46;97069.81;;;14.72;41.13
8061;BME280;4073;42.626;25.386;2023-11-19T08:37:11;97087.22;;;15.50;39.26
8061;BME280;4073;42.626;25.386;2023-11-19T08:39:38;97085.91;;;16.06;38.39
8061;BME280;4073;42.626;25.386;2023-11-19T08:42:04;97090.13;;;17.07;36.66
8061;BME280;4073;42.626;25.386;2023-11-19T08:44:29;97075.81;;;16.89;35.89
8061;BME280;4073;42.626;25.386;2023-11-19T08:46:55;97078.25;;;17.16;36.00
8061;BME280;4073;42.626;25.386;2023-11-19T08:49:20;97073.09;;;16.81;35.63
8061;BME280;4073;42.626;25.386;2023-11-19T08:51:46;97084.38;;;16.91;36.68
8061;BME280;4073;42.626;25.386;2023-11-19T08:54:11;97075.31;;;17.52;35.25
8061;BME280;4073;42.626;25.386;2023-11-19T08:56:38;97076.72;;;16.76;35.57
8061;BME280;4073;42.626;25.386;2023-11-19T08:59:05;97078.88;;;16.57;36.06
8061;BME280;4073;42.626;25.386;2023-11-19T09:01:30;97087.56;;;16.93;35.02
8061;BME280;4073;42.626;25.386;2023-11-19T09:03:56;97093.19;;;17.31;35.19
8061;BME280;4073;42.626;25.386;2023-11-19T09:06:21;97102.03;;;17.79;34.78
8061;BME280;4073;42.626;25.386;2023-11-19T09:08:47;97099.78;;;17.89;35.05
8061;BME280;4073;42.626;25.386;2023-11-19T09:11:12;97089.19;;;18.31;33.25
8061;BME280;4073;42.626;25.386;2023-11-19T09:13:38;97093.03;;;18.21;33.43
8061;BME280;4073;42.626;25.386;2023-11-19T09:16:03;97101.22;;;17.78;34.11
8061;BME280;4073;42.626;25.386;2023-11-19T09:18:30;97094.28;;;18.41;33.14
8061;BME280;4073;42.626;25.386;2023-11-19T09:20:55;97102.47;;;17.89;32.87
8061;BME280;4073;42.626;25.386;2023-11-19T09:23:21;97094.63;;;18.14;32.86
8061;BME280;4073;42.626;25.386;2023-11-19T09:25:46;97097.75;;;16.96;33.78
8061;BME280;4073;42.626;25.386;2023-11-19T09:28:12;97099.44;;;16.75;34.30
8061;BME280;4073;42.626;25.386;2023-11-19T09:30:39;97090.34;;;16.10;35.93
8061;BME280;4073;42.626;25.386;2023-11-19T09:33:05;97090.59;;;16.00;35.70
8061;BME280;4073;42.626;25.386;2023-11-19T09:35:30;97098.16;;;17.37;34.64
8061;BME280;4073;42.626;25.386;2023-11-19T09:37:56;97091.22;;;17.70;33.68
8061;BME280;4073;42.626;25.386;2023-11-19T09:40:22;97079.94;;;16.87;34.00
8061;BME280;4073;42.626;25.386;2023-11-19T09:42:47;97080.78;;;16.57;34.73
8061;BME280;4073;42.626;25.386;2023-11-19T09:45:15;97074.25;;;16.27;35.11
8061;BME280;4073;42.626;25.386;2023-11-19T09:47:45;97069.06;;;15.56;35.76
8061;BME280;4073;42.626;25.386;2023-11-19T09:50:19;97057.41;;;15.47;36.30
8061;BME280;4073;42.626;25.386;2023-11-19T09:52:46;97044.09;;;14.39;37.40
8061;BME280;4073;42.626;25.386;2023-11-19T09:55:11;97050.75;;;14.41;38.16
8061;BME280;4073;42.626;25.386;2023-11-19T09:57:40;97051.50;;;14.15;39.08
8061;BME280;4073;42.626;25.386;2023-11-19T10:00:10;97064.63;;;13.02;40.28
8061;BME280;4073;42.626;25.386;2023-11-19T10:02:37;97054.69;;;12.78;41.72
8061;BME280;4073;42.626;25.386;2023-11-19T10:05:06;97057.06;;;12.38;42.37
8061;BME280;4073;42.626;25.386;2023-11-19T10:07:33;97071.44;;;12.47;43.04
8061;BME280;4073;42.626;25.386;2023-11-19T10:10:00;97068.66;;;12.57;42.49
8061;BME280;4073;42.626;25.386;2023-11-19T10:12:26;97055.53;;;12.32;43.56
8061;BME280;4073;42.626;25.386;2023-11-19T10:14:56;97052.44;;;12.43;43.77
8061;BME280;4073;42.626;25.386;2023-11-19T10:17:22;97028.25;;;12.48;43.53
8061;BME280;4073;42.626;25.386;2023-11-19T10:19:54;97045.56;;;12.98;43.15
8061;BME280;4073;42.626;25.386;2023-11-19T10:22:20;97054.72;;;12.97;44.44
8061;BME280;4073;42.626;25.386;2023-11-19T10:24:45;97049.38;;;13.53;44.20
8061;BME280;4073;42.626;25.386;2023-11-19T10:27:11;97049.56;;;13.56;44.13
8061;BME280;4073;42.626;25.386;2023-11-19T10:29:37;97057.06;;;14.05;42.07
8061;BME280;4073;42.626;25.386;2023-11-19T10:32:03;97054.56;;;13.63;43.00
8061;BME280;4073;42.626;25.386;2023-11-19T10:34:29;97056.63;;;13.52;43.16
8061;BME280;4073;42.626;25.386;2023-11-19T10:36:55;97056.19;;;13.77;42.27
8061;BME280;4073;42.626;25.386;2023-11-19T10:39:21;97046.63;;;13.21;43.64
8061;BME280;4073;42.626;25.386;2023-11-19T10:41:48;97024.06;;;13.22;43.91
8061;BME280;4073;42.626;25.386;2023-11-19T10:44:31;97019.34;;;12.53;45.51
8061;BME280;4073;42.626;25.386;2023-11-19T10:46:56;97037.50;;;12.79;45.31
8061;BME280;4073;42.626;25.386;2023-11-19T10:49:21;97033.53;;;12.77;45.98
8061;BME280;4073;42.626;25.386;2023-11-19T10:51:48;97028.56;;;12.65;45.55
8061;BME280;4073;42.626;25.386;2023-11-19T10:54:18;97029.59;;;12.69;45.69
8061;BME280;4073;42.626;25.386;2023-11-19T10:56:44;97021.28;;;12.89;45.07
8061;BME280;4073;42.626;25.386;2023-11-19T10:59:13;97026.78;;;12.79;44.13
8061;BME280;4073;42.626;25.386;2023-11-19T11:01:43;97025.63;;;12.85;44.64
8061;BME280;4073;42.626;25.386;2023-11-19T11:04:14;97016.44;;;12.91;45.47
8061;BME280;4073;42.626;25.386;2023-11-19T11:06:40;97025.47;;;12.77;45.54
8061;BME280;4073;42.626;25.386;2023-11-19T11:09:07;97008.38;;;12.07;47.09
8061;BME280;4073;42.626;25.386;2023-11-19T11:11:38;97025.09;;;11.94;47.01
8061;BME280;4073;42.626;25.386;2023-11-19T11:14:04;97024.66;;;11.87;46.99
8061;BME280;4073;42.626;25.386;2023-11-19T11:16:31;97017.34;;;11.93;46.61
8061;BME280;4073;42.626;25.386;2023-11-19T11:18:57;97022.22;;;12.14;45.95
8061;BME280;4073;42.626;25.386;2023-11-19T11:21:25;97031.50;;;12.45;44.46
8061;BME280;4073;42.626;25.386;2023-11-19T11:29:08;96998.03;;;12.19;45.50
8061;BME280;4073;42.626;25.386;2023-11-19T11:32:01;96991.25;;;12.03;46.72
8061;BME280;4073;42.626;25.386;2023-11-19T11:39:33;96962.19;;;11.92;46.42
8061;BME280;4073;42.626;25.386;2023-11-19T11:45:02;96985.59;;;11.81;46.66
8061;BME280;4073;42.626;25.386;2023-11-19T11:55:34;96951.69;;;12.19;47.82
8061;BME280;4073;42.626;25.386;2023-11-19T11:58:02;96932.22;;;12.32;46.45
8061;BME280;4073;42.626;25.386;2023-11-19T12:00:37;96927.84;;;12.17;46.19
8061;BME280;4073;42.626;25.386;2023-11-19T12:03:05;96880.69;;;11.98;46.55
8061;BME280;4073;42.626;25.386;2023-11-19T12:05:32;96909.38;;;12.16;46.53
8061;BME280;4073;42.626;25.386;2023-11-19T12:08:04;96903.91;;;12.02;46.48
8061;BME280;4073;42.626;25.386;2023-11-19T12:10:53;96915.28;;;11.94;46.44
8061;BME280;4073;42.626;25.386;2023-11-19T12:13:19;96906.72;;;11.92;46.86
8061;BME280;4073;42.626;25.386;2023-11-19T12:18:23;96864.28;;;11.81;47.15
8061;BME280;4073;42.626;25.386;2023-11-19T12:20:49;96880.69;;;11.98;47.88
8061;BME280;4073;42.626;25.386;2023-11-19T12:23:15;96869.75;;;12.13;46.75
8061;BME280;4073;42.626;25.386;2023-11-19T12:25:41;96881.13;;;12.05;46.14
8061;BME280;4073;42.626;25.386;2023-11-19T12:28:11;96889.50;;;11.98;46.49
8061;BME280;4073;42.626;25.386;2023-11-19T12:30:37;96902.56;;;12.05;46.48
8061;BME280;4073;42.626;25.386;2023-11-19T12:33:11;96905.13;;;12.15;46.06
8061;BME280;4073;42.626;25.386;2023-11-19T12:35:40;96913.28;;;12.05;46.36
8061;BME280;4073;42.626;25.386;2023-11-19T12:38:06;96912.47;;;12.04;45.95
8061;BME280;4073;42.626;25.386;2023-11-19T12:40:32;96909.72;;;12.09;46.47
8061;BME280;4073;42.626;25.386;2023-11-19T12:42:57;96919.88;;;12.12;46.11
8061;BME280;4073;42.626;25.386;2023-11-19T12:45:24;96898.00;;;11.82;46.76
8061;BME280;4073;42.626;25.386;2023-11-19T12:48:04;96905.41;;;11.90;47.12
8061;BME280;4073;42.626;25.386;2023-11-19T12:50:50;96896.06;;;11.87;47.19
8061;BME280;4073;42.626;25.386;2023-11-19T12:53:15;96899.38;;;11.79;47.28
8061;BME280;4073;42.626;25.386;2023-11-19T12:55:41;96900.53;;;11.73;48.11
8061;BME280;4073;42.626;25.386;2023-11-19T12:58:06;96884.22;;;11.70;47.92
8061;BME280;4073;42.626;25.386;2023-11-19T13:00:32;96884.75;;;11.72;48.07
8061;BME280;4073;42.626;25.386;2023-11-19T13:02:58;96884.56;;;11.58;47.85
8061;BME280;4073;42.626;25.386;2023-11-19T13:08:01;96885.66;;;11.57;48.28
8061;BME280;4073;42.626;25.386;2023-11-19T13:10:28;96880.81;;;11.64;48.51
8061;BME280;4073;42.626;25.386;2023-11-19T13:13:05;96886.75;;;11.56;48.56
8061;BME280;4073;42.626;25.386;2023-11-19T13:15:34;96874.50;;;11.50;48.22
8061;BME280;4073;42.626;25.386;2023-11-19T13:18:04;96874.78;;;11.49;48.36
8061;BME280;4073;42.626;25.386;2023-11-19T13:20:29;96880.97;;;11.44;48.79
8061;BME280;4073;42.626;25.386;2023-11-19T13:22:59;96874.50;;;11.27;50.02
8061;BME280;4073;42.626;25.386;2023-11-19T13:25:25;96878.13;;;11.36;49.92
8061;BME280;4073;42.626;25.386;2023-11-19T13:27:51;96886.22;;;11.54;49.42
8061;BME280;4073;42.626;25.386;2023-11-19T13:30:17;96886.91;;;11.41;49.15
8061;BME280;4073;42.626;25.386;2023-11-19T13:32:42;96893.63;;;11.39;48.98
8061;BME280;4073;42.626;25.386;2023-11-19T13:35:09;96897.66;;;11.36;49.30
8061;BME280;4073;42.626;25.386;2023-11-19T13:37:35;96891.00;;;11.34;48.49
8061;BME280;4073;42.626;25.386;2023-11-19T13:40:01;96891.03;;;11.29;49.04